首页
METAR-TAF:

METAR-TAF

机场 :

尚贝里 / 艾克斯-就业辅导组班, 法国

纬度: 45-39N, 经度: 005-53E, 海拔: 235米

当前天气观测

该预报发布于27分钟前的11:30 UTC
风速1节,风向多变
温度 5°C
湿度 93%
气压 1021 hPa
能見度: 7000
多云层高于4600英尺
阴天层高于5600英尺
小雨

METAR: LFLB 261130Z AUTO VRB01KT 7000 -RA BKN046 OVC056 05/04 Q1021 TEMPO 3000 -SHRA FEW030TCU BKN035

时间: 12:57 (11:57 UTC)

预报

该预报发布于57分钟前的11:00 UTC
预报有效从26日的 12点(UTC)到 27日的 12点(UTC)
风速5节,风向
能见度10公里或以上
多云层高于5000英尺
短暂存在
从 26日的 12点(UTC)到 26日的 24点(UTC)
能見度: 3000
少量云层高于3000英尺, 塔状积云.
多云层高于3500英尺
小阵雨
成为
从 27日的 00点(UTC)到 27日的 02点(UTC)
能见度10公里或以上
1500米以下无云,无积雨云
几率 40% :
短暂存在
从 27日的 02点(UTC)到 27日的 06点(UTC)
能見度: 3000
轻雾
成为
从 27日的 10点(UTC)到 27日的 12点(UTC)
阴天层高于8000英尺

TAF: LFLB 261100Z 2612/2712 18005KT 9999 BKN050 TEMPO 2612/2624 3000 -SHRA FEW030TCU BKN035 BECMG 2700/2702 CAVOK PROB40 TEMPO 2702/2706 3000 BR BECMG 2710/2712 OVC080

超过4000个机场的气象观测和天气预报(METAR&TAF报告)。

可查询的气象台以黄色和红色小点在地图上表示。

将鼠标移到小点上方,可查看气象台名称。

然后点击查看天气观测和预报。

如需切换地图:点击带黑十字的绿色按钮放大地图;点击带横线的绿色按钮缩小地图;或者点击绿色箭头查看邻近地区的地图。


METAR-TAF: